Terminal Aerodrome Forecast
Issued by NWS

Home | Current Version | Previous Version | Text Only | Print | Product List | Glossary On
Versions: 1 2 3 4 5 6 7 8 9 10 11 12
000
FTUS45 KRIW 262327
TAFJAC
TAF
KJAC 262327Z 2700/2724 23007KT P6SM SCT100
     FM270300 36005KT P6SM SKC
     FM271900 22011KT P6SM FEW110
      AMD LTD TO CLD VIS AND WIND=

USA.gov is the U.S. government's official web portal to all federal, state and local government web resources and services.